SLRY  Reyes Airport

Add Bookmark

Reyes, Bolivia

Status IATA
Operational REY
Latitude Longitude
14° 18' 15" S 67° 21' 12" W
-14.304400 -67.353401
Local (DST -4) UTC (GMT -4)
Dec 19, 2014 07:33 Dec 19, 2014 23:33
Sunrise-Sunset Local UTC
Begin Civil Twilight 05:32 09:32
Sunrise 05:56 09:56
Sunset 06:57 22:57
End Civil Twilight 07:20 23:20

Current Weather

METAR Observed VFR
SLRY 192200Z 00000KT 9999 SCT016 SCT080 BKN200 25/23 Q1006 Fri, Dec 19, 2014 @ 22:00 UTC
(1 Hour, 33 Minutes ago)
Visual Flight Rules
Wind Visibility Clouds Conditions
Calm 10 km or more
  • Scattered at 1,600' AGL
  • Scattered at 8,000' AGL
  • Broken at 20,000' AGL
  • No significant weather
Temperatures Readings Precipitation
Current Temp 25°C (77°F)
Dewpoint 23°C (73°F)
Humidity 89%
Altimeter 29.7"Hg
Sea Level Pressure 1006mb
Field Elevation 918.64'
None Recorded

Additional weather within a 92.6km radius of SLRY

Map ICAO Location
SLRQ 20.7km S (229°)

24 Hour Weather History

Loading
-

24 Hour Weather Graphs

Loading
-

CheckWX.com is intended as a tool to help pilots better visualize weather data. It is not intended as a substitute for an official weather briefing obtained from a Flight Service Station. CheckWX.com does not meet the FAA requirements for an official pre-flight weather briefing. Therefore, it's important that pilots still call and obtain an official FSS pre-flight weather briefing.